sensor_id;sensor_type;location;lat;lon;timestamp;P1;durP1;ratioP1;P2;durP2;ratioP2
7324;SDS011;3703;48.016;7.802;2022-12-07T00:02:45;16.83;;;9.83;;
7324;SDS011;3703;48.016;7.802;2022-12-07T00:05:32;17.73;;;9.77;;
7324;SDS011;3703;48.016;7.802;2022-12-07T00:08:20;16.40;;;9.97;;
7324;SDS011;3703;48.016;7.802;2022-12-07T00:11:09;19.33;;;10.97;;
7324;SDS011;3703;48.016;7.802;2022-12-07T00:14:00;19.57;;;11.00;;
7324;SDS011;3703;48.016;7.802;2022-12-07T00:16:52;19.47;;;10.60;;
7324;SDS011;3703;48.016;7.802;2022-12-07T00:19:40;18.67;;;10.90;;
7324;SDS011;3703;48.016;7.802;2022-12-07T00:22:28;20.37;;;10.33;;
7324;SDS011;3703;48.016;7.802;2022-12-07T00:25:16;19.83;;;11.10;;
7324;SDS011;3703;48.016;7.802;2022-12-07T00:28:04;21.83;;;11.73;;
7324;SDS011;3703;48.016;7.802;2022-12-07T00:30:59;18.23;;;9.97;;
7324;SDS011;3703;48.016;7.802;2022-12-07T00:33:50;19.17;;;11.43;;
7324;SDS011;3703;48.016;7.802;2022-12-07T00:36:37;20.50;;;11.60;;
7324;SDS011;3703;48.016;7.802;2022-12-07T00:39:25;20.90;;;11.07;;
7324;SDS011;3703;48.016;7.802;2022-12-07T00:42:13;19.53;;;10.90;;
7324;SDS011;3703;48.016;7.802;2022-12-07T00:45:01;18.33;;;10.57;;
7324;SDS011;3703;48.016;7.802;2022-12-07T00:47:49;20.67;;;11.57;;
7324;SDS011;3703;48.016;7.802;2022-12-07T00:50:39;17.07;;;11.33;;
7324;SDS011;3703;48.016;7.802;2022-12-07T00:53:26;20.50;;;11.37;;
7324;SDS011;3703;48.016;7.802;2022-12-07T00:56:15;21.40;;;11.40;;
7324;SDS011;3703;48.016;7.802;2022-12-07T00:59:04;20.50;;;11.23;;
7324;SDS011;3703;48.016;7.802;2022-12-07T01:01:53;23.23;;;12.40;;
7324;SDS011;3703;48.016;7.802;2022-12-07T01:04:40;23.13;;;12.50;;
7324;SDS011;3703;48.016;7.802;2022-12-07T01:07:30;21.03;;;11.63;;
7324;SDS011;3703;48.016;7.802;2022-12-07T01:10:18;20.77;;;11.13;;
7324;SDS011;3703;48.016;7.802;2022-12-07T01:13:06;20.70;;;10.87;;
7324;SDS011;3703;48.016;7.802;2022-12-07T01:15:56;19.57;;;10.97;;
7324;SDS011;3703;48.016;7.802;2022-12-07T01:18:45;18.40;;;11.27;;
7324;SDS011;3703;48.016;7.802;2022-12-07T01:21:35;19.53;;;11.33;;
7324;SDS011;3703;48.016;7.802;2022-12-07T01:24:24;20.23;;;11.43;;
7324;SDS011;3703;48.016;7.802;2022-12-07T01:27:12;20.27;;;10.90;;
7324;SDS011;3703;48.016;7.802;2022-12-07T01:30:00;24.67;;;11.80;;
7324;SDS011;3703;48.016;7.802;2022-12-07T01:32:49;23.60;;;11.00;;
7324;SDS011;3703;48.016;7.802;2022-12-07T01:35:37;23.57;;;12.17;;
7324;SDS011;3703;48.016;7.802;2022-12-07T01:38:25;22.73;;;12.60;;
7324;SDS011;3703;48.016;7.802;2022-12-07T01:41:14;23.53;;;12.20;;
7324;SDS011;3703;48.016;7.802;2022-12-07T01:44:21;22.93;;;11.37;;
7324;SDS011;3703;48.016;7.802;2022-12-07T01:47:10;23.47;;;11.97;;
7324;SDS011;3703;48.016;7.802;2022-12-07T01:49:58;24.47;;;12.80;;
7324;SDS011;3703;48.016;7.802;2022-12-07T01:52:46;23.80;;;13.43;;
7324;SDS011;3703;48.016;7.802;2022-12-07T01:55:38;20.20;;;12.07;;
7324;SDS011;3703;48.016;7.802;2022-12-07T01:58:30;23.33;;;12.47;;
7324;SDS011;3703;48.016;7.802;2022-12-07T02:01:18;23.53;;;13.33;;
7324;SDS011;3703;48.016;7.802;2022-12-07T02:04:06;23.80;;;12.17;;
7324;SDS011;3703;48.016;7.802;2022-12-07T02:06:54;21.77;;;12.07;;
7324;SDS011;3703;48.016;7.802;2022-12-07T02:09:42;21.07;;;11.67;;
7324;SDS011;3703;48.016;7.802;2022-12-07T02:12:30;22.17;;;11.47;;
7324;SDS011;3703;48.016;7.802;2022-12-07T02:15:19;22.37;;;11.00;;
7324;SDS011;3703;48.016;7.802;2022-12-07T02:18:09;18.77;;;11.40;;
7324;SDS011;3703;48.016;7.802;2022-12-07T02:21:05;21.67;;;11.33;;
7324;SDS011;3703;48.016;7.802;2022-12-07T02:24:03;20.80;;;10.77;;
7324;SDS011;3703;48.016;7.802;2022-12-07T02:27:33;18.53;;;10.53;;
7324;SDS011;3703;48.016;7.802;2022-12-07T02:30:30;16.60;;;8.63;;
7324;SDS011;3703;48.016;7.802;2022-12-07T02:33:22;19.77;;;9.53;;
7324;SDS011;3703;48.016;7.802;2022-12-07T02:36:15;15.60;;;9.13;;
7324;SDS011;3703;48.016;7.802;2022-12-07T02:39:09;18.37;;;9.43;;
7324;SDS011;3703;48.016;7.802;2022-12-07T02:42:09;17.50;;;9.57;;
7324;SDS011;3703;48.016;7.802;2022-12-07T02:45:03;18.43;;;9.03;;
7324;SDS011;3703;48.016;7.802;2022-12-07T02:47:56;18.00;;;10.33;;
7324;SDS011;3703;48.016;7.802;2022-12-07T02:50:48;16.93;;;8.93;;
7324;SDS011;3703;48.016;7.802;2022-12-07T02:53:37;17.87;;;8.63;;
7324;SDS011;3703;48.016;7.802;2022-12-07T02:56:30;16.37;;;9.67;;
7324;SDS011;3703;48.016;7.802;2022-12-07T02:59:30;20.13;;;10.20;;
7324;SDS011;3703;48.016;7.802;2022-12-07T03:02:28;18.00;;;9.33;;
7324;SDS011;3703;48.016;7.802;2022-12-07T03:08:57;18.57;;;9.50;;
7324;SDS011;3703;48.016;7.802;2022-12-07T03:12:00;18.83;;;10.07;;
7324;SDS011;3703;48.016;7.802;2022-12-07T03:14:56;20.97;;;8.90;;
7324;SDS011;3703;48.016;7.802;2022-12-07T03:17:48;15.43;;;8.77;;
7324;SDS011;3703;48.016;7.802;2022-12-07T03:20:37;17.37;;;9.10;;
7324;SDS011;3703;48.016;7.802;2022-12-07T03:23:30;16.13;;;9.53;;
7324;SDS011;3703;48.016;7.802;2022-12-07T03:26:21;15.47;;;9.13;;
7324;SDS011;3703;48.016;7.802;2022-12-07T03:29:19;17.73;;;8.77;;
7324;SDS011;3703;48.016;7.802;2022-12-07T03:32:13;15.67;;;8.93;;
7324;SDS011;3703;48.016;7.802;2022-12-07T03:35:04;15.77;;;9.27;;
7324;SDS011;3703;48.016;7.802;2022-12-07T03:37:58;17.67;;;9.50;;
7324;SDS011;3703;48.016;7.802;2022-12-07T03:40:54;15.77;;;9.53;;
7324;SDS011;3703;48.016;7.802;2022-12-07T03:43:47;18.87;;;9.40;;
7324;SDS011;3703;48.016;7.802;2022-12-07T03:46:36;17.47;;;8.80;;
7324;SDS011;3703;48.016;7.802;2022-12-07T03:49:31;17.33;;;9.97;;
7324;SDS011;3703;48.016;7.802;2022-12-07T03:52:28;17.37;;;9.80;;
7324;SDS011;3703;48.016;7.802;2022-12-07T03:55:22;18.97;;;9.97;;
7324;SDS011;3703;48.016;7.802;2022-12-07T03:58:17;16.97;;;9.03;;
7324;SDS011;3703;48.016;7.802;2022-12-07T04:01:07;21.63;;;10.53;;
7324;SDS011;3703;48.016;7.802;2022-12-07T04:03:55;15.63;;;8.37;;
7324;SDS011;3703;48.016;7.802;2022-12-07T04:06:43;16.23;;;9.70;;
7324;SDS011;3703;48.016;7.802;2022-12-07T04:09:31;15.93;;;9.00;;
7324;SDS011;3703;48.016;7.802;2022-12-07T04:12:19;17.20;;;8.90;;
7324;SDS011;3703;48.016;7.802;2022-12-07T04:15:08;17.67;;;9.63;;
7324;SDS011;3703;48.016;7.802;2022-12-07T04:17:57;17.97;;;9.33;;
7324;SDS011;3703;48.016;7.802;2022-12-07T04:20:45;15.23;;;9.47;;
7324;SDS011;3703;48.016;7.802;2022-12-07T04:23:33;14.57;;;8.93;;
7324;SDS011;3703;48.016;7.802;2022-12-07T04:26:21;15.83;;;9.13;;
7324;SDS011;3703;48.016;7.802;2022-12-07T04:29:09;15.90;;;8.30;;
7324;SDS011;3703;48.016;7.802;2022-12-07T04:31:58;18.93;;;10.87;;
7324;SDS011;3703;48.016;7.802;2022-12-07T04:34:46;17.90;;;10.03;;
7324;SDS011;3703;48.016;7.802;2022-12-07T04:37:34;15.53;;;9.60;;
7324;SDS011;3703;48.016;7.802;2022-12-07T04:40:24;17.13;;;9.73;;
7324;SDS011;3703;48.016;7.802;2022-12-07T04:43:12;16.53;;;9.07;;
7324;SDS011;3703;48.016;7.802;2022-12-07T04:46:00;17.37;;;9.63;;
7324;SDS011;3703;48.016;7.802;2022-12-07T04:48:49;18.10;;;9.63;;
7324;SDS011;3703;48.016;7.802;2022-12-07T04:51:37;16.00;;;8.60;;
7324;SDS011;3703;48.016;7.802;2022-12-07T04:54:25;18.37;;;10.27;;
7324;SDS011;3703;48.016;7.802;2022-12-07T04:57:13;17.83;;;9.97;;
7324;SDS011;3703;48.016;7.802;2022-12-07T05:00:01;16.87;;;9.77;;
7324;SDS011;3703;48.016;7.802;2022-12-07T05:02:49;17.40;;;9.23;;
7324;SDS011;3703;48.016;7.802;2022-12-07T05:05:40;17.00;;;9.03;;
7324;SDS011;3703;48.016;7.802;2022-12-07T05:08:28;15.70;;;9.03;;
7324;SDS011;3703;48.016;7.802;2022-12-07T05:11:16;19.57;;;9.93;;
7324;SDS011;3703;48.016;7.802;2022-12-07T05:14:18;18.07;;;9.20;;
7324;SDS011;3703;48.016;7.802;2022-12-07T05:17:07;17.43;;;8.80;;
7324;SDS011;3703;48.016;7.802;2022-12-07T05:19:56;16.67;;;9.03;;
7324;SDS011;3703;48.016;7.802;2022-12-07T05:22:46;15.50;;;8.87;;
7324;SDS011;3703;48.016;7.802;2022-12-07T05:25:33;15.83;;;8.90;;
7324;SDS011;3703;48.016;7.802;2022-12-07T05:28:21;14.77;;;8.33;;
7324;SDS011;3703;48.016;7.802;2022-12-07T05:31:09;15.53;;;8.50;;
7324;SDS011;3703;48.016;7.802;2022-12-07T05:33:57;18.40;;;9.10;;
7324;SDS011;3703;48.016;7.802;2022-12-07T05:36:45;13.10;;;8.23;;
7324;SDS011;3703;48.016;7.802;2022-12-07T05:39:35;14.63;;;8.37;;
7324;SDS011;3703;48.016;7.802;2022-12-07T05:42:23;16.37;;;8.47;;
7324;SDS011;3703;48.016;7.802;2022-12-07T05:45:11;16.37;;;8.47;;
7324;SDS011;3703;48.016;7.802;2022-12-07T05:47:58;14.63;;;8.87;;
7324;SDS011;3703;48.016;7.802;2022-12-07T05:50:47;14.00;;;7.87;;
7324;SDS011;3703;48.016;7.802;2022-12-07T05:53:35;16.43;;;7.97;;
7324;SDS011;3703;48.016;7.802;2022-12-07T05:56:24;13.37;;;8.03;;
7324;SDS011;3703;48.016;7.802;2022-12-07T05:59:12;13.83;;;7.80;;
7324;SDS011;3703;48.016;7.802;2022-12-07T06:02:10;13.53;;;7.53;;
7324;SDS011;3703;48.016;7.802;2022-12-07T06:05:00;13.67;;;7.00;;
7324;SDS011;3703;48.016;7.802;2022-12-07T06:07:48;14.87;;;8.20;;
7324;SDS011;3703;48.016;7.802;2022-12-07T06:10:36;15.83;;;8.40;;
7324;SDS011;3703;48.016;7.802;2022-12-07T06:13:25;16.13;;;8.17;;
7324;SDS011;3703;48.016;7.802;2022-12-07T06:16:12;13.03;;;7.93;;
7324;SDS011;3703;48.016;7.802;2022-12-07T06:19:00;14.37;;;8.17;;
7324;SDS011;3703;48.016;7.802;2022-12-07T06:21:48;12.43;;;7.37;;
7324;SDS011;3703;48.016;7.802;2022-12-07T06:24:36;13.17;;;7.97;;
7324;SDS011;3703;48.016;7.802;2022-12-07T06:27:24;14.20;;;8.57;;
7324;SDS011;3703;48.016;7.802;2022-12-07T06:30:13;17.23;;;9.07;;
7324;SDS011;3703;48.016;7.802;2022-12-07T06:33:02;15.97;;;8.93;;
7324;SDS011;3703;48.016;7.802;2022-12-07T06:35:49;13.53;;;8.33;;
7324;SDS011;3703;48.016;7.802;2022-12-07T06:38:37;21.13;;;10.53;;
7324;SDS011;3703;48.016;7.802;2022-12-07T06:41:25;25.40;;;12.30;;
7324;SDS011;3703;48.016;7.802;2022-12-07T06:44:13;21.70;;;11.13;;
7324;SDS011;3703;48.016;7.802;2022-12-07T06:47:03;15.70;;;9.73;;
7324;SDS011;3703;48.016;7.802;2022-12-07T06:49:51;16.87;;;9.40;;
7324;SDS011;3703;48.016;7.802;2022-12-07T06:52:38;17.73;;;9.37;;
7324;SDS011;3703;48.016;7.802;2022-12-07T06:55:26;15.10;;;8.80;;
7324;SDS011;3703;48.016;7.802;2022-12-07T06:58:14;21.90;;;11.23;;
7324;SDS011;3703;48.016;7.802;2022-12-07T07:01:02;19.77;;;9.10;;
7324;SDS011;3703;48.016;7.802;2022-12-07T07:03:58;20.83;;;10.73;;
7324;SDS011;3703;48.016;7.802;2022-12-07T07:06:45;21.40;;;10.83;;
7324;SDS011;3703;48.016;7.802;2022-12-07T07:09:33;19.30;;;11.20;;
7324;SDS011;3703;48.016;7.802;2022-12-07T07:12:21;20.13;;;10.60;;
7324;SDS011;3703;48.016;7.802;2022-12-07T07:15:09;19.90;;;10.43;;
7324;SDS011;3703;48.016;7.802;2022-12-07T07:17:58;20.50;;;9.80;;
7324;SDS011;3703;48.016;7.802;2022-12-07T07:20:47;17.17;;;9.53;;
7324;SDS011;3703;48.016;7.802;2022-12-07T07:23:35;21.27;;;11.07;;
7324;SDS011;3703;48.016;7.802;2022-12-07T07:26:23;23.97;;;11.67;;
7324;SDS011;3703;48.016;7.802;2022-12-07T07:29:11;20.00;;;9.87;;
7324;SDS011;3703;48.016;7.802;2022-12-07T07:31:59;16.93;;;9.07;;
7324;SDS011;3703;48.016;7.802;2022-12-07T07:34:47;18.90;;;8.47;;
7324;SDS011;3703;48.016;7.802;2022-12-07T07:37:36;16.23;;;8.83;;
7324;SDS011;3703;48.016;7.802;2022-12-07T07:40:24;16.40;;;8.90;;
7324;SDS011;3703;48.016;7.802;2022-12-07T07:43:14;13.87;;;8.43;;
7324;SDS011;3703;48.016;7.802;2022-12-07T07:46:02;14.17;;;8.20;;
7324;SDS011;3703;48.016;7.802;2022-12-07T07:48:50;15.90;;;7.87;;
7324;SDS011;3703;48.016;7.802;2022-12-07T07:51:37;17.87;;;8.97;;
7324;SDS011;3703;48.016;7.802;2022-12-07T07:54:27;15.10;;;8.30;;
7324;SDS011;3703;48.016;7.802;2022-12-07T07:57:15;14.67;;;7.87;;
7324;SDS011;3703;48.016;7.802;2022-12-07T08:00:04;13.77;;;8.40;;
7324;SDS011;3703;48.016;7.802;2022-12-07T08:02:54;20.67;;;11.07;;
7324;SDS011;3703;48.016;7.802;2022-12-07T08:05:42;17.83;;;10.17;;
7324;SDS011;3703;48.016;7.802;2022-12-07T08:08:30;14.70;;;8.13;;
7324;SDS011;3703;48.016;7.802;2022-12-07T08:11:19;15.60;;;7.70;;
7324;SDS011;3703;48.016;7.802;2022-12-07T08:14:07;13.00;;;7.80;;
7324;SDS011;3703;48.016;7.802;2022-12-07T08:16:56;11.43;;;7.10;;
7324;SDS011;3703;48.016;7.802;2022-12-07T08:19:44;11.13;;;7.80;;
7324;SDS011;3703;48.016;7.802;2022-12-07T08:22:31;14.37;;;8.27;;
7324;SDS011;3703;48.016;7.802;2022-12-07T08:25:19;11.13;;;7.57;;
7324;SDS011;3703;48.016;7.802;2022-12-07T08:28:09;10.63;;;6.57;;
7324;SDS011;3703;48.016;7.802;2022-12-07T08:30:58;10.10;;;6.60;;
7324;SDS011;3703;48.016;7.802;2022-12-07T08:33:47;10.83;;;7.20;;
7324;SDS011;3703;48.016;7.802;2022-12-07T08:36:35;10.53;;;7.27;;
7324;SDS011;3703;48.016;7.802;2022-12-07T08:39:24;22.77;;;10.00;;
7324;SDS011;3703;48.016;7.802;2022-12-07T08:42:11;19.00;;;10.50;;
7324;SDS011;3703;48.016;7.802;2022-12-07T08:45:00;15.97;;;8.70;;
7324;SDS011;3703;48.016;7.802;2022-12-07T08:47:48;11.60;;;7.47;;
7324;SDS011;3703;48.016;7.802;2022-12-07T08:50:41;13.87;;;8.70;;
7324;SDS011;3703;48.016;7.802;2022-12-07T08:53:28;12.40;;;7.77;;
7324;SDS011;3703;48.016;7.802;2022-12-07T08:56:16;13.63;;;7.87;;
7324;SDS011;3703;48.016;7.802;2022-12-07T08:59:05;13.73;;;7.93;;
7324;SDS011;3703;48.016;7.802;2022-12-07T09:01:55;10.70;;;7.10;;
7324;SDS011;3703;48.016;7.802;2022-12-07T09:04:42;12.33;;;7.23;;
7324;SDS011;3703;48.016;7.802;2022-12-07T09:07:30;12.07;;;7.23;;
7324;SDS011;3703;48.016;7.802;2022-12-07T09:10:20;11.50;;;7.30;;
7324;SDS011;3703;48.016;7.802;2022-12-07T09:13:08;15.47;;;9.83;;
7324;SDS011;3703;48.016;7.802;2022-12-07T09:15:56;13.67;;;9.80;;
7324;SDS011;3703;48.016;7.802;2022-12-07T09:18:45;12.40;;;8.37;;
7324;SDS011;3703;48.016;7.802;2022-12-07T09:21:33;18.17;;;10.03;;
7324;SDS011;3703;48.016;7.802;2022-12-07T09:24:20;18.43;;;11.17;;
7324;SDS011;3703;48.016;7.802;2022-12-07T09:27:09;11.80;;;8.00;;
7324;SDS011;3703;48.016;7.802;2022-12-07T09:29:57;14.20;;;7.60;;
7324;SDS011;3703;48.016;7.802;2022-12-07T09:32:44;10.50;;;7.07;;
7324;SDS011;3703;48.016;7.802;2022-12-07T09:35:33;11.13;;;7.03;;
7324;SDS011;3703;48.016;7.802;2022-12-07T09:38:21;11.23;;;7.60;;
7324;SDS011;3703;48.016;7.802;2022-12-07T09:41:12;10.33;;;7.47;;
7324;SDS011;3703;48.016;7.802;2022-12-07T09:44:03;9.60;;;6.47;;
7324;SDS011;3703;48.016;7.802;2022-12-07T09:46:53;9.87;;;7.00;;
7324;SDS011;3703;48.016;7.802;2022-12-07T09:49:42;11.87;;;6.93;;
7324;SDS011;3703;48.016;7.802;2022-12-07T09:52:31;9.83;;;7.10;;
7324;SDS011;3703;48.016;7.802;2022-12-07T09:55:19;10.40;;;7.03;;
7324;SDS011;3703;48.016;7.802;2022-12-07T09:58:12;10.87;;;7.33;;
7324;SDS011;3703;48.016;7.802;2022-12-07T10:01:10;8.80;;;6.77;;
7324;SDS011;3703;48.016;7.802;2022-12-07T10:04:08;9.43;;;6.93;;
7324;SDS011;3703;48.016;7.802;2022-12-07T10:07:00;7.97;;;6.23;;
7324;SDS011;3703;48.016;7.802;2022-12-07T10:09:49;8.97;;;6.20;;
7324;SDS011;3703;48.016;7.802;2022-12-07T10:12:44;8.53;;;5.77;;
7324;SDS011;3703;48.016;7.802;2022-12-07T10:15:43;11.37;;;7.10;;
7324;SDS011;3703;48.016;7.802;2022-12-07T10:18:34;9.03;;;6.23;;
7324;SDS011;3703;48.016;7.802;2022-12-07T10:21:24;8.20;;;5.60;;
7324;SDS011;3703;48.016;7.802;2022-12-07T10:24:14;8.33;;;5.97;;
7324;SDS011;3703;48.016;7.802;2022-12-07T10:27:03;8.07;;;5.70;;
7324;SDS011;3703;48.016;7.802;2022-12-07T10:29:51;7.60;;;5.87;;
7324;SDS011;3703;48.016;7.802;2022-12-07T10:32:39;12.10;;;5.90;;
7324;SDS011;3703;48.016;7.802;2022-12-07T10:35:28;7.03;;;5.67;;
7324;SDS011;3703;48.016;7.802;2022-12-07T10:38:17;9.43;;;5.80;;
7324;SDS011;3703;48.016;7.802;2022-12-07T10:41:05;6.80;;;5.57;;
7324;SDS011;3703;48.016;7.802;2022-12-07T10:43:56;11.20;;;7.47;;
7324;SDS011;3703;48.016;7.802;2022-12-07T10:46:56;8.17;;;5.50;;
7324;SDS011;3703;48.016;7.802;2022-12-07T10:50:04;7.60;;;5.80;;
7324;SDS011;3703;48.016;7.802;2022-12-07T10:53:22;7.80;;;5.87;;
7324;SDS011;3703;48.016;7.802;2022-12-07T10:56:38;8.33;;;5.80;;
7324;SDS011;3703;48.016;7.802;2022-12-07T10:59:44;6.77;;;5.60;;
7324;SDS011;3703;48.016;7.802;2022-12-07T11:03:01;7.00;;;5.13;;
7324;SDS011;3703;48.016;7.802;2022-12-07T11:06:22;8.83;;;5.67;;
7324;SDS011;3703;48.016;7.802;2022-12-07T11:12:36;6.87;;;5.43;;
7324;SDS011;3703;48.016;7.802;2022-12-07T11:15:53;13.57;;;8.47;;
7324;SDS011;3703;48.016;7.802;2022-12-07T11:19:12;10.53;;;6.10;;
7324;SDS011;3703;48.016;7.802;2022-12-07T11:22:16;11.70;;;6.87;;
7324;SDS011;3703;48.016;7.802;2022-12-07T11:25:15;5.87;;;4.63;;
7324;SDS011;3703;48.016;7.802;2022-12-07T11:28:15;5.23;;;4.10;;
7324;SDS011;3703;48.016;7.802;2022-12-07T11:31:17;6.40;;;3.97;;
7324;SDS011;3703;48.016;7.802;2022-12-07T11:34:18;5.47;;;4.53;;
7324;SDS011;3703;48.016;7.802;2022-12-07T11:37:13;7.50;;;5.27;;
7324;SDS011;3703;48.016;7.802;2022-12-07T11:40:12;7.03;;;4.50;;
7324;SDS011;3703;48.016;7.802;2022-12-07T11:43:11;8.23;;;5.83;;
7324;SDS011;3703;48.016;7.802;2022-12-07T11:46:08;6.97;;;4.90;;
7324;SDS011;3703;48.016;7.802;2022-12-07T11:49:03;6.53;;;5.00;;
7324;SDS011;3703;48.016;7.802;2022-12-07T11:52:02;6.07;;;4.67;;
7324;SDS011;3703;48.016;7.802;2022-12-07T11:54:51;6.77;;;4.27;;
7324;SDS011;3703;48.016;7.802;2022-12-07T11:57:41;7.40;;;4.90;;
7324;SDS011;3703;48.016;7.802;2022-12-07T12:00:33;6.90;;;5.03;;
7324;SDS011;3703;48.016;7.802;2022-12-07T12:03:23;36.47;;;20.37;;
7324;SDS011;3703;48.016;7.802;2022-12-07T12:06:20;11.70;;;6.93;;
7324;SDS011;3703;48.016;7.802;2022-12-07T12:09:10;9.23;;;6.27;;
7324;SDS011;3703;48.016;7.802;2022-12-07T12:12:14;6.50;;;4.97;;
7324;SDS011;3703;48.016;7.802;2022-12-07T12:15:45;6.40;;;4.80;;
7324;SDS011;3703;48.016;7.802;2022-12-07T12:19:14;5.33;;;4.03;;
7324;SDS011;3703;48.016;7.802;2022-12-07T12:22:14;6.13;;;4.60;;
7324;SDS011;3703;48.016;7.802;2022-12-07T12:25:06;6.27;;;4.47;;
7324;SDS011;3703;48.016;7.802;2022-12-07T12:28:15;6.53;;;3.77;;
7324;SDS011;3703;48.016;7.802;2022-12-07T12:31:14;7.37;;;3.90;;
7324;SDS011;3703;48.016;7.802;2022-12-07T12:34:31;5.17;;;4.17;;
7324;SDS011;3703;48.016;7.802;2022-12-07T12:40:41;5.57;;;4.17;;
7324;SDS011;3703;48.016;7.802;2022-12-07T12:43:49;7.40;;;4.47;;
7324;SDS011;3703;48.016;7.802;2022-12-07T12:46:46;4.70;;;3.70;;
7324;SDS011;3703;48.016;7.802;2022-12-07T12:49:38;9.83;;;6.03;;
7324;SDS011;3703;48.016;7.802;2022-12-07T12:56:21;10.63;;;5.90;;
7324;SDS011;3703;48.016;7.802;2022-12-07T12:59:23;8.40;;;6.03;;
7324;SDS011;3703;48.016;7.802;2022-12-07T13:02:16;5.57;;;4.40;;
7324;SDS011;3703;48.016;7.802;2022-12-07T13:05:16;4.33;;;3.93;;
7324;SDS011;3703;48.016;7.802;2022-12-07T13:08:12;4.73;;;3.70;;
7324;SDS011;3703;48.016;7.802;2022-12-07T13:11:16;4.50;;;3.37;;
7324;SDS011;3703;48.016;7.802;2022-12-07T13:17:57;3.40;;;2.80;;
7324;SDS011;3703;48.016;7.802;2022-12-07T13:20:55;4.07;;;3.43;;
7324;SDS011;3703;48.016;7.802;2022-12-07T13:23:54;5.53;;;3.57;;
7324;SDS011;3703;48.016;7.802;2022-12-07T13:26:43;4.70;;;3.40;;
7324;SDS011;3703;48.016;7.802;2022-12-07T13:29:36;4.50;;;3.90;;
7324;SDS011;3703;48.016;7.802;2022-12-07T13:32:25;6.37;;;3.57;;
7324;SDS011;3703;48.016;7.802;2022-12-07T13:35:28;4.87;;;3.47;;
7324;SDS011;3703;48.016;7.802;2022-12-07T13:38:23;6.30;;;3.43;;
7324;SDS011;3703;48.016;7.802;2022-12-07T13:41:17;4.50;;;3.67;;
7324;SDS011;3703;48.016;7.802;2022-12-07T13:44:08;4.57;;;3.23;;
7324;SDS011;3703;48.016;7.802;2022-12-07T13:47:00;5.17;;;4.03;;
7324;SDS011;3703;48.016;7.802;2022-12-07T13:49:54;4.10;;;3.40;;
7324;SDS011;3703;48.016;7.802;2022-12-07T13:52:43;5.57;;;4.37;;
7324;SDS011;3703;48.016;7.802;2022-12-07T13:55:31;4.67;;;3.43;;
7324;SDS011;3703;48.016;7.802;2022-12-07T13:58:21;4.53;;;3.40;;
7324;SDS011;3703;48.016;7.802;2022-12-07T14:01:09;3.33;;;2.63;;
7324;SDS011;3703;48.016;7.802;2022-12-07T14:07:22;3.43;;;2.43;;
7324;SDS011;3703;48.016;7.802;2022-12-07T14:10:22;3.57;;;2.77;;
7324;SDS011;3703;48.016;7.802;2022-12-07T14:13:26;3.47;;;2.83;;
7324;SDS011;3703;48.016;7.802;2022-12-07T14:16:22;4.13;;;2.83;;
7324;SDS011;3703;48.016;7.802;2022-12-07T14:22:35;4.87;;;3.70;;
7324;SDS011;3703;48.016;7.802;2022-12-07T14:25:24;6.13;;;4.27;;
7324;SDS011;3703;48.016;7.802;2022-12-07T14:28:26;5.70;;;4.67;;
7324;SDS011;3703;48.016;7.802;2022-12-07T14:31:17;15.97;;;8.93;;
7324;SDS011;3703;48.016;7.802;2022-12-07T14:34:11;13.47;;;8.13;;
7324;SDS011;3703;48.016;7.802;2022-12-07T14:36:59;7.20;;;4.83;;
7324;SDS011;3703;48.016;7.802;2022-12-07T14:39:46;5.60;;;4.60;;
7324;SDS011;3703;48.016;7.802;2022-12-07T14:42:34;6.97;;;4.60;;
7324;SDS011;3703;48.016;7.802;2022-12-07T14:45:25;6.53;;;4.53;;
7324;SDS011;3703;48.016;7.802;2022-12-07T14:48:13;5.43;;;4.20;;
7324;SDS011;3703;48.016;7.802;2022-12-07T14:51:02;7.17;;;4.63;;
7324;SDS011;3703;48.016;7.802;2022-12-07T14:53:50;7.90;;;4.67;;
7324;SDS011;3703;48.016;7.802;2022-12-07T14:56:39;7.03;;;4.70;;
7324;SDS011;3703;48.016;7.802;2022-12-07T14:59:27;8.87;;;4.80;;
7324;SDS011;3703;48.016;7.802;2022-12-07T15:02:16;7.07;;;4.63;;
7324;SDS011;3703;48.016;7.802;2022-12-07T15:05:04;7.03;;;4.83;;
7324;SDS011;3703;48.016;7.802;2022-12-07T15:07:52;9.47;;;4.60;;
7324;SDS011;3703;48.016;7.802;2022-12-07T15:10:39;7.23;;;5.47;;
7324;SDS011;3703;48.016;7.802;2022-12-07T15:13:27;10.23;;;6.27;;
7324;SDS011;3703;48.016;7.802;2022-12-07T15:16:32;9.37;;;5.87;;
7324;SDS011;3703;48.016;7.802;2022-12-07T15:19:22;8.70;;;5.43;;
7324;SDS011;3703;48.016;7.802;2022-12-07T15:22:11;7.73;;;4.93;;
7324;SDS011;3703;48.016;7.802;2022-12-07T15:24:59;8.13;;;5.17;;
7324;SDS011;3703;48.016;7.802;2022-12-07T15:27:47;9.40;;;6.13;;
7324;SDS011;3703;48.016;7.802;2022-12-07T15:30:36;9.50;;;5.87;;
7324;SDS011;3703;48.016;7.802;2022-12-07T15:33:25;7.17;;;5.30;;
7324;SDS011;3703;48.016;7.802;2022-12-07T15:36:15;8.60;;;5.33;;
7324;SDS011;3703;48.016;7.802;2022-12-07T15:39:08;8.30;;;5.00;;
7324;SDS011;3703;48.016;7.802;2022-12-07T15:41:56;10.47;;;5.93;;
7324;SDS011;3703;48.016;7.802;2022-12-07T15:44:43;8.70;;;5.73;;
7324;SDS011;3703;48.016;7.802;2022-12-07T15:47:48;7.83;;;5.03;;
7324;SDS011;3703;48.016;7.802;2022-12-07T15:50:36;8.73;;;6.00;;
7324;SDS011;3703;48.016;7.802;2022-12-07T15:53:25;11.67;;;5.67;;
7324;SDS011;3703;48.016;7.802;2022-12-07T15:56:13;10.17;;;6.33;;
7324;SDS011;3703;48.016;7.802;2022-12-07T15:59:01;10.40;;;6.53;;
7324;SDS011;3703;48.016;7.802;2022-12-07T16:01:49;10.23;;;6.70;;
7324;SDS011;3703;48.016;7.802;2022-12-07T16:04:37;13.03;;;6.57;;
7324;SDS011;3703;48.016;7.802;2022-12-07T16:07:24;9.77;;;5.77;;
7324;SDS011;3703;48.016;7.802;2022-12-07T16:10:14;13.27;;;5.83;;
7324;SDS011;3703;48.016;7.802;2022-12-07T16:13:01;8.17;;;5.47;;
7324;SDS011;3703;48.016;7.802;2022-12-07T16:15:49;9.77;;;5.70;;
7324;SDS011;3703;48.016;7.802;2022-12-07T16:18:37;12.80;;;6.80;;
7324;SDS011;3703;48.016;7.802;2022-12-07T16:21:25;9.30;;;5.73;;
7324;SDS011;3703;48.016;7.802;2022-12-07T16:24:13;11.17;;;6.83;;
7324;SDS011;3703;48.016;7.802;2022-12-07T16:27:03;9.40;;;5.87;;
7324;SDS011;3703;48.016;7.802;2022-12-07T16:29:50;11.40;;;6.53;;
7324;SDS011;3703;48.016;7.802;2022-12-07T16:32:38;12.73;;;6.80;;
7324;SDS011;3703;48.016;7.802;2022-12-07T16:35:26;12.13;;;6.30;;
7324;SDS011;3703;48.016;7.802;2022-12-07T16:38:14;14.93;;;7.47;;
7324;SDS011;3703;48.016;7.802;2022-12-07T16:41:02;11.70;;;6.40;;
7324;SDS011;3703;48.016;7.802;2022-12-07T16:43:51;11.67;;;6.70;;
7324;SDS011;3703;48.016;7.802;2022-12-07T16:46:39;9.63;;;6.57;;
7324;SDS011;3703;48.016;7.802;2022-12-07T16:49:27;13.23;;;6.10;;
7324;SDS011;3703;48.016;7.802;2022-12-07T16:52:15;11.70;;;6.40;;
7324;SDS011;3703;48.016;7.802;2022-12-07T16:55:03;12.60;;;7.27;;
7324;SDS011;3703;48.016;7.802;2022-12-07T16:57:52;11.37;;;6.87;;
7324;SDS011;3703;48.016;7.802;2022-12-07T17:00:41;12.50;;;7.40;;
7324;SDS011;3703;48.016;7.802;2022-12-07T17:03:30;12.97;;;8.70;;
7324;SDS011;3703;48.016;7.802;2022-12-07T17:06:19;12.50;;;7.50;;
7324;SDS011;3703;48.016;7.802;2022-12-07T17:09:09;13.47;;;8.53;;
7324;SDS011;3703;48.016;7.802;2022-12-07T17:11:57;12.87;;;7.63;;
7324;SDS011;3703;48.016;7.802;2022-12-07T17:14:45;10.93;;;7.77;;
7324;SDS011;3703;48.016;7.802;2022-12-07T17:17:52;11.40;;;7.37;;
7324;SDS011;3703;48.016;7.802;2022-12-07T17:20:42;10.83;;;6.50;;
7324;SDS011;3703;48.016;7.802;2022-12-07T17:23:30;16.73;;;7.57;;
7324;SDS011;3703;48.016;7.802;2022-12-07T17:26:20;13.90;;;7.57;;
7324;SDS011;3703;48.016;7.802;2022-12-07T17:29:11;13.80;;;7.37;;
7324;SDS011;3703;48.016;7.802;2022-12-07T17:32:01;9.80;;;6.53;;
7324;SDS011;3703;48.016;7.802;2022-12-07T17:34:50;12.27;;;6.53;;
7324;SDS011;3703;48.016;7.802;2022-12-07T17:37:38;10.00;;;5.50;;
7324;SDS011;3703;48.016;7.802;2022-12-07T17:40:26;10.23;;;5.67;;
7324;SDS011;3703;48.016;7.802;2022-12-07T17:43:13;10.93;;;6.03;;
7324;SDS011;3703;48.016;7.802;2022-12-07T17:46:04;10.57;;;5.97;;
7324;SDS011;3703;48.016;7.802;2022-12-07T17:48:54;11.20;;;5.73;;
7324;SDS011;3703;48.016;7.802;2022-12-07T17:51:43;7.67;;;5.87;;
7324;SDS011;3703;48.016;7.802;2022-12-07T17:54:48;13.00;;;7.00;;
7324;SDS011;3703;48.016;7.802;2022-12-07T17:57:36;9.37;;;5.50;;